Salvatore — IIYN — position and weather

sailwx.info

Track history (hours):
 
Tides and Currents Weather Stations Pressure Air Temp Water Temp Dewpoint Dewpoint Depression Visibility Wind Speed Wind Dir Waves Ship Positions

Salvatore

Last reported at 2017-Nov-16 13:30 UTC. Time now 2017-Nov-19 14:28 UTC.
Position N 39°40' E 016°32'.

Length 21 m.

Type: Fishing. MMSI: 247303390.

Date/timePositionNaut miles runAvg speedWind from/ knotsBaromVisibWave heightAir tempDewpointWater temp
2017-Nov-16 13:30N 39°40' E 016°32'0 0.4
2017-Nov-16 13:00N 39°41' E 016°32'2 3.1
2017-Nov-16 12:29N 39°42' E 016°33'3 6.1
2017-Nov-16 12:00N 39°45' E 016°32'2 2.2
2017-Nov-16 11:10N 39°47' E 016°31'0 2.7
2017-Nov-16 11:00N 39°47' E 016°31'2 2.5
2017-Nov-16 10:21N 39°48' E 016°32'1 2.6
2017-Nov-16 09:52N 39°50' E 016°33'1 2.6
2017-Nov-16 09:28N 39°50' E 016°34'1 2.6
2017-Nov-16 08:59N 39°51' E 016°35'1 2.3
2017-Nov-16 08:30N 39°51' E 016°36'2 2.6
2017-Nov-16 07:54N 39°52' E 016°38'1 2.6
2017-Nov-16 07:28N 39°53' E 016°39'1 2.5
2017-Nov-16 06:57N 39°54' E 016°40'1 2.6
2017-Nov-16 06:30N 39°55' E 016°41'4 6.9
2017-Nov-16 05:54N 39°57' E 016°46'3 5.6
2017-Nov-16 05:27N 39°59' E 016°44'2 5.0
2017-Nov-16 04:59N 40°01' E 016°42'1 2.7
2017-Nov-16 04:30N 40°02' E 016°42'1 2.7
2017-Nov-16 03:58N 40°03' E 016°42'1 2.6
2017-Nov-16 03:28N 40°05' E 016°43'1 2.5
2017-Nov-16 03:00N 40°06' E 016°44'1 2.6
2017-Nov-16 02:26N 40°07' E 016°45'4 0.5
2017-Nov-15 19:39N 40°04' E 016°42'3 0.4
2017-Nov-15 12:51N 40°06' E 016°44'1 2.6
2017-Nov-15 12:27N 40°05' E 016°43'1 1.9
2017-Nov-15 12:00N 40°04' E 016°43'0 0.0
2017-Nov-15 05:29N 40°05' E 016°42'1 2.6
2017-Nov-15 04:59N 40°03' E 016°42'1 2.5
2017-Nov-15 04:30N 40°02' E 016°42'2 2.8
2017-Nov-15 03:58N 40°01' E 016°42'2 3.9
2017-Nov-15 03:26N 40°00' E 016°39'3 7.4
2017-Nov-15 02:58N 39°57' E 016°39'6 7.4
2017-Nov-15 02:09N 39°51' E 016°36'8 7.5
2017-Nov-15 01:05N 39°43' E 016°33'1 7.4
2017-Nov-15 00:59N 39°43' E 016°32'3 0.3
2017-Nov-14 13:41N 39°40' E 016°31'2 8.2
2017-Nov-14 13:29N 39°41' E 016°33'5 8.7
2017-Nov-14 12:55N 39°45' E 016°37'4 8.2
2017-Nov-14 12:27N 39°48' E 016°39'4 8.1
2017-Nov-14 11:56N 39°52' E 016°41'4 8.2
2017-Nov-14 11:27N 39°56' E 016°41'5 8.1
2017-Nov-14 10:51N 40°01' E 016°41'2 3.7
2017-Nov-14 10:20N 40°03' E 016°41'1 0.2
2017-Nov-14 04:13N 40°04' E 016°41'1 2.0
2017-Nov-14 03:48N 40°03' E 016°41'1 2.0
2017-Nov-14 03:27N 40°04' E 016°41'1 2.6
2017-Nov-14 02:55N 40°05' E 016°42'1 2.6
2017-Nov-14 02:23N 40°06' E 016°43'7 0.3
2017-Nov-13 02:00N 39°59' E 016°41'3 5.6
2017-Nov-13 01:29N 39°56' E 016°39'4 7.6
2017-Nov-13 01:00N 39°53' E 016°38'4 7.6
2017-Nov-13 00:27N 39°49' E 016°36'7 7.5
2017-Nov-12 23:29N 39°42' E 016°33'  
2017-Nov-09 13:03N 39°41' E 016°33'1 7.7
2017-Nov-09 12:55N 39°41' E 016°34'3 7.8
2017-Nov-09 12:28N 39°42' E 016°39'11 3.8
2017-Nov-09 09:34N 39°48' E 016°51'1 2.5
2017-Nov-09 09:16N 39°48' E 016°52'1 2.6
2017-Nov-09 08:55N 39°49' E 016°52'6 2.5
2017-Nov-09 06:37N 39°54' E 016°48'0 2.4
2017-Nov-09 06:28N 39°55' E 016°48'4 3.9
2017-Nov-09 05:32N 39°58' E 016°45'0 8.2
2017-Nov-09 05:30N 39°58' E 016°45'4 6.4
2017-Nov-09 04:56N 39°59' E 016°41'1 1.9
2017-Nov-09 04:24N 40°00' E 016°41'1 2.7
2017-Nov-09 04:00N 40°01' E 016°42'2 2.7
2017-Nov-09 03:25N 40°03' E 016°43'2 2.6
2017-Nov-09 02:32N 40°05' E 016°44'10 2.8
2017-Nov-08 23:04N 40°13' E 016°52'0 2.3
2017-Nov-08 23:00N 40°13' E 016°52'1 1.9
2017-Nov-08 22:28N 40°12' E 016°51'1 2.6
2017-Nov-08 21:59N 40°11' E 016°51'2 2.5
2017-Nov-08 21:23N 40°09' E 016°50'4 2.5
2017-Nov-08 19:37N 40°06' E 016°45'9 2.3
2017-Nov-08 15:33N 40°15' E 016°51'0 1.4
2017-Nov-08 15:27N 40°14' E 016°51'1 2.6
2017-Nov-08 14:59N 40°13' E 016°50'2 0.3
2017-Nov-08 10:00N 40°12' E 016°52'3 5.7
2017-Nov-08 09:30N 40°12' E 016°49'1 2.6
2017-Nov-08 09:00N 40°11' E 016°48'10 2.6
2017-Nov-08 05:01N 40°02' E 016°41'1 2.8
2017-Nov-08 04:50N 40°01' E 016°41'1 2.9
2017-Nov-08 04:29N 40°01' E 016°40'2 3.8
2017-Nov-08 04:00N 39°59' E 016°40'4 7.0
2017-Nov-08 03:30N 39°55' E 016°39'4 7.0
2017-Nov-08 02:53N 39°51' E 016°37'3 7.0
2017-Nov-08 02:28N 39°48' E 016°35'4 7.2
2017-Nov-08 01:53N 39°44' E 016°33'4 7.1
2017-Nov-08 01:19N 39°41' E 016°32'2 0.1
2017-Nov-07 14:02N 39°41' E 016°34'1 7.6
2017-Nov-07 13:58N 39°41' E 016°34'4 7.7
2017-Nov-07 13:30N 39°42' E 016°39'4 7.7
2017-Nov-07 13:00N 39°44' E 016°43'4 6.8
2017-Nov-07 12:27N 39°45' E 016°48'0 0.1
2017-Nov-07 11:59N 39°45' E 016°48'1 2.4
2017-Nov-07 11:30N 39°46' E 016°49'1 2.6
2017-Nov-07 10:58N 39°47' E 016°50'1 2.5
2017-Nov-07 10:29N 39°48' E 016°51'1 2.6
2017-Nov-07 09:59N 39°49' E 016°51'7 2.6
2017-Nov-07 07:11N 39°56' E 016°47'2 4.1
2017-Nov-07 06:47N 39°58' E 016°47'2 7.4
2017-Nov-07 06:28N 39°59' E 016°45'3 7.2
2017-Nov-07 06:00N 39°60' E 016°40'1 1.4
2017-Nov-07 05:30N 40°00' E 016°40'4 2.6
2017-Nov-07 04:04N 40°03' E 016°43'0 2.4
2017-Nov-07 04:00N 40°04' E 016°43'1 2.5
2017-Nov-07 03:30N 40°05' E 016°44'2 1.0
2017-Nov-07 01:33N 40°03' E 016°42'1 2.8
2017-Nov-07 01:21N 40°03' E 016°42'1 2.8
2017-Nov-07 00:57N 40°02' E 016°41'1 2.8
2017-Nov-07 00:28N 40°01' E 016°40'0 0.6
2017-Nov-07 00:00N 40°00' E 016°40'1 2.7
2017-Nov-06 23:30N 40°02' E 016°41'2 2.8
2017-Nov-06 22:55N 40°03' E 016°42'1 2.9
2017-Nov-06 22:27N 40°04' E 016°43'1 2.9
2017-Nov-06 22:00N 40°05' E 016°44'  
Track history (hours):
 
Tides and Currents Weather Stations Pressure Air Temp Water Temp Dewpoint Dewpoint Depression Visibility Wind Speed Wind Dir Waves Ship Positions

Salvatore

Last reported at 2017-Nov-16 13:30 UTC. Time now 2017-Nov-19 14:28 UTC.
Position N 39°40' E 016°32'.

Length 21 m.

Type: Fishing. MMSI: 247303390.

Date/timePositionNaut miles runAvg speedWind from/ knotsBaromVisibWave heightAir tempDewpointWater temp
2017-Nov-16 13:30N 39°40' E 016°32'0 0.4
2017-Nov-16 13:00N 39°41' E 016°32'2 3.1
2017-Nov-16 12:29N 39°42' E 016°33'3 6.1
2017-Nov-16 12:00N 39°45' E 016°32'2 2.2
2017-Nov-16 11:10N 39°47' E 016°31'0 2.7
2017-Nov-16 11:00N 39°47' E 016°31'2 2.5
2017-Nov-16 10:21N 39°48' E 016°32'1 2.6
2017-Nov-16 09:52N 39°50' E 016°33'1 2.6
2017-Nov-16 09:28N 39°50' E 016°34'1 2.6
2017-Nov-16 08:59N 39°51' E 016°35'1 2.3
2017-Nov-16 08:30N 39°51' E 016°36'2 2.6
2017-Nov-16 07:54N 39°52' E 016°38'1 2.6
2017-Nov-16 07:28N 39°53' E 016°39'1 2.5
2017-Nov-16 06:57N 39°54' E 016°40'1 2.6
2017-Nov-16 06:30N 39°55' E 016°41'4 6.9
2017-Nov-16 05:54N 39°57' E 016°46'3 5.6
2017-Nov-16 05:27N 39°59' E 016°44'2 5.0
2017-Nov-16 04:59N 40°01' E 016°42'1 2.7
2017-Nov-16 04:30N 40°02' E 016°42'1 2.7
2017-Nov-16 03:58N 40°03' E 016°42'1 2.6
2017-Nov-16 03:28N 40°05' E 016°43'1 2.5
2017-Nov-16 03:00N 40°06' E 016°44'1 2.6
2017-Nov-16 02:26N 40°07' E 016°45'4 0.5
2017-Nov-15 19:39N 40°04' E 016°42'3 0.4
2017-Nov-15 12:51N 40°06' E 016°44'1 2.6
2017-Nov-15 12:27N 40°05' E 016°43'1 1.9
2017-Nov-15 12:00N 40°04' E 016°43'0 0.0
2017-Nov-15 05:29N 40°05' E 016°42'1 2.6
2017-Nov-15 04:59N 40°03' E 016°42'1 2.5
2017-Nov-15 04:30N 40°02' E 016°42'2 2.8
2017-Nov-15 03:58N 40°01' E 016°42'2 3.9
2017-Nov-15 03:26N 40°00' E 016°39'3 7.4
2017-Nov-15 02:58N 39°57' E 016°39'6 7.4
2017-Nov-15 02:09N 39°51' E 016°36'8 7.5
2017-Nov-15 01:05N 39°43' E 016°33'1 7.4
2017-Nov-15 00:59N 39°43' E 016°32'3 0.3
2017-Nov-14 13:41N 39°40' E 016°31'2 8.2
2017-Nov-14 13:29N 39°41' E 016°33'5 8.7
2017-Nov-14 12:55N 39°45' E 016°37'4 8.2
2017-Nov-14 12:27N 39°48' E 016°39'4 8.1
2017-Nov-14 11:56N 39°52' E 016°41'4 8.2
2017-Nov-14 11:27N 39°56' E 016°41'5 8.1
2017-Nov-14 10:51N 40°01' E 016°41'2 3.7
2017-Nov-14 10:20N 40°03' E 016°41'1 0.2
2017-Nov-14 04:13N 40°04' E 016°41'1 2.0
2017-Nov-14 03:48N 40°03' E 016°41'1 2.0
2017-Nov-14 03:27N 40°04' E 016°41'1 2.6
2017-Nov-14 02:55N 40°05' E 016°42'1 2.6
2017-Nov-14 02:23N 40°06' E 016°43'7 0.3
2017-Nov-13 02:00N 39°59' E 016°41'3 5.6
2017-Nov-13 01:29N 39°56' E 016°39'4 7.6
2017-Nov-13 01:00N 39°53' E 016°38'4 7.6
2017-Nov-13 00:27N 39°49' E 016°36'7 7.5
2017-Nov-12 23:29N 39°42' E 016°33'  
2017-Nov-09 13:03N 39°41' E 016°33'1 7.7
2017-Nov-09 12:55N 39°41' E 016°34'3 7.8
2017-Nov-09 12:28N 39°42' E 016°39'11 3.8
2017-Nov-09 09:34N 39°48' E 016°51'1 2.5
2017-Nov-09 09:16N 39°48' E 016°52'1 2.6
2017-Nov-09 08:55N 39°49' E 016°52'6 2.5
2017-Nov-09 06:37N 39°54' E 016°48'0 2.4
2017-Nov-09 06:28N 39°55' E 016°48'4 3.9
2017-Nov-09 05:32N 39°58' E 016°45'0 8.2
2017-Nov-09 05:30N 39°58' E 016°45'4 6.4
2017-Nov-09 04:56N 39°59' E 016°41'1 1.9
2017-Nov-09 04:24N 40°00' E 016°41'1 2.7
2017-Nov-09 04:00N 40°01' E 016°42'2 2.7
2017-Nov-09 03:25N 40°03' E 016°43'2 2.6
2017-Nov-09 02:32N 40°05' E 016°44'10 2.8
2017-Nov-08 23:04N 40°13' E 016°52'0 2.3
2017-Nov-08 23:00N 40°13' E 016°52'1 1.9
2017-Nov-08 22:28N 40°12' E 016°51'1 2.6
2017-Nov-08 21:59N 40°11' E 016°51'2 2.5
2017-Nov-08 21:23N 40°09' E 016°50'4 2.5
2017-Nov-08 19:37N 40°06' E 016°45'9 2.3
2017-Nov-08 15:33N 40°15' E 016°51'0 1.4
2017-Nov-08 15:27N 40°14' E 016°51'1 2.6
2017-Nov-08 14:59N 40°13' E 016°50'2 0.3
2017-Nov-08 10:00N 40°12' E 016°52'3 5.7
2017-Nov-08 09:30N 40°12' E 016°49'1 2.6
2017-Nov-08 09:00N 40°11' E 016°48'10 2.6
2017-Nov-08 05:01N 40°02' E 016°41'1 2.8
2017-Nov-08 04:50N 40°01' E 016°41'1 2.9
2017-Nov-08 04:29N 40°01' E 016°40'2 3.8
2017-Nov-08 04:00N 39°59' E 016°40'4 7.0
2017-Nov-08 03:30N 39°55' E 016°39'4 7.0
2017-Nov-08 02:53N 39°51' E 016°37'3 7.0
2017-Nov-08 02:28N 39°48' E 016°35'4 7.2
2017-Nov-08 01:53N 39°44' E 016°33'4 7.1
2017-Nov-08 01:19N 39°41' E 016°32'2 0.1
2017-Nov-07 14:02N 39°41' E 016°34'1 7.6
2017-Nov-07 13:58N 39°41' E 016°34'4 7.7
2017-Nov-07 13:30N 39°42' E 016°39'4 7.7
2017-Nov-07 13:00N 39°44' E 016°43'4 6.8
2017-Nov-07 12:27N 39°45' E 016°48'0 0.1
2017-Nov-07 11:59N 39°45' E 016°48'1 2.4
2017-Nov-07 11:30N 39°46' E 016°49'1 2.6
2017-Nov-07 10:58N 39°47' E 016°50'1 2.5
2017-Nov-07 10:29N 39°48' E 016°51'1 2.6
2017-Nov-07 09:59N 39°49' E 016°51'7 2.6
2017-Nov-07 07:11N 39°56' E 016°47'2 4.1
2017-Nov-07 06:47N 39°58' E 016°47'2 7.4
2017-Nov-07 06:28N 39°59' E 016°45'3 7.2
2017-Nov-07 06:00N 39°60' E 016°40'1 1.4
2017-Nov-07 05:30N 40°00' E 016°40'4 2.6
2017-Nov-07 04:04N 40°03' E 016°43'0 2.4
2017-Nov-07 04:00N 40°04' E 016°43'1 2.5
2017-Nov-07 03:30N 40°05' E 016°44'2 1.0
2017-Nov-07 01:33N 40°03' E 016°42'1 2.8
2017-Nov-07 01:21N 40°03' E 016°42'1 2.8
2017-Nov-07 00:57N 40°02' E 016°41'1 2.8
2017-Nov-07 00:28N 40°01' E 016°40'0 0.6
2017-Nov-07 00:00N 40°00' E 016°40'1 2.7
2017-Nov-06 23:30N 40°02' E 016°41'2 2.8
2017-Nov-06 22:55N 40°03' E 016°42'1 2.9
2017-Nov-06 22:27N 40°04' E 016°43'1 2.9
2017-Nov-06 22:00N 40°05' E 016°44'  

Dump ship's entire track history